Time;durP1;ratioP1;P1;durP2;ratioP2;P2;SDS_P1;SDS_P2;PMS_P1;PMS_P2;Temp;Humidity;BMP_temperature;BMP_pressure;BME280_temperature;BME280_humidity;BME280_pressure;Samples;Min_cycle;Max_cycle;Signal;HPM_P1;HPM_P2
2022/11/30 00:01:24;;;;;;;;;;;;;;;7.95;53.54;99276.72;4480397;31;20012;-87
2022/11/30 00:03:54;;;;;;;;;;;;;;;8.16;53.27;99272.47;4482821;31;20060;-86
2022/11/30 00:06:21;;;;;;;;;;;;;;;8.24;53.43;99270.41;4480591;31;19992;-87
2022/11/30 00:08:47;;;;;;;;;;;;;;;8.18;53.58;99265.38;4482630;31;20011;-87
2022/11/30 00:11:13;;;;;;;;;;;;;;;8.06;53.33;99264.09;4480617;31;20071;-87
2022/11/30 00:13:38;;;;;;;;;;;;;;;8.11;53.41;99254.25;4482632;31;19992;-86
2022/11/30 00:16:04;;;;;;;;;;;;;;;7.62;54.06;99261.28;4481646;32;20281;-86
2022/11/30 00:18:29;;;;;;;;;;;;;;;7.96;53.32;99263.56;4471756;32;20025;-86
2022/11/30 00:20:57;;;;;;;;;;;;;;;7.59;54.06;99258.75;4482587;31;19971;-85
2022/11/30 00:23:23;;;;;;;;;;;;;;;7.69;54.24;99262.78;4480466;31;19972;-86
2022/11/30 00:25:48;;;;;;;;;;;;;;;7.54;54.64;99260.69;4482601;31;20006;-86
2022/11/30 00:28:13;;;;;;;;;;;;;;;7.90;54.16;99273.41;4480281;31;20022;-86
2022/11/30 00:30:38;;;;;;;;;;;;;;;7.70;54.03;99261.00;4482426;32;20311;-85
2022/11/30 00:33:04;;;;;;;;;;;;;;;7.87;53.38;99263.88;4480487;31;20268;-86
2022/11/30 00:35:30;;;;;;;;;;;;;;;7.76;53.73;99266.88;4482291;31;20004;-85
2022/11/30 00:37:56;;;;;;;;;;;;;;;8.00;53.33;99259.06;4481343;31;20158;-84
2022/11/30 00:40:21;;;;;;;;;;;;;;;8.03;53.02;99266.81;4480905;31;20010;-85
2022/11/30 00:42:46;;;;;;;;;;;;;;;8.05;52.87;99265.84;4482680;31;19967;-84
2022/11/30 00:45:12;;;;;;;;;;;;;;;7.93;53.20;99255.78;4479977;31;19996;-84
2022/11/30 00:47:37;;;;;;;;;;;;;;;7.49;53.81;99260.84;4482211;32;20003;-85
2022/11/30 00:50:03;;;;;;;;;;;;;;;7.87;53.04;99263.88;4479802;31;20011;-84
2022/11/30 00:52:29;;;;;;;;;;;;;;;7.80;53.44;99263.25;4482343;31;20029;-86
2022/11/30 00:54:54;;;;;;;;;;;;;;;7.48;54.43;99259.97;4466104;32;20019;-86
2022/11/30 00:57:19;;;;;;;;;;;;;;;7.76;53.83;99260.78;4482255;31;20323;-85
2022/11/30 00:59:45;;;;;;;;;;;;;;;7.99;52.93;99263.44;4480858;31;19972;-86
2022/11/30 01:02:10;;;;;;;;;;;;;;;7.77;53.78;99257.25;4468556;32;20027;-87
2022/11/30 01:04:35;;;;;;;;;;;;;;;7.73;53.41;99264.38;4468265;31;19998;-85
2022/11/30 01:07:00;;;;;;;;;;;;;;;7.81;53.43;99266.72;4470905;32;20006;-86
2022/11/30 01:09:26;;;;;;;;;;;;;;;7.86;52.76;99263.03;4482050;31;20004;-86
2022/11/30 01:11:51;;;;;;;;;;;;;;;7.72;52.90;99259.19;4479384;31;19996;-86
2022/11/30 01:14:16;;;;;;;;;;;;;;;7.98;52.49;99261.72;4481781;31;20012;-86
2022/11/30 01:16:41;;;;;;;;;;;;;;;7.96;52.06;99263.56;4471180;32;19999;-84
2022/11/30 01:19:07;;;;;;;;;;;;;;;8.07;51.90;99257.91;4481851;31;20012;-85
2022/11/30 01:21:32;;;;;;;;;;;;;;;8.02;51.97;99263.34;4482855;31;20015;-85
2022/11/30 01:23:57;;;;;;;;;;;;;;;8.03;51.63;99254.53;4474513;32;20034;-85
2022/11/30 01:26:22;;;;;;;;;;;;;;;8.16;51.71;99257.56;4484146;31;19999;-85
2022/11/30 01:28:51;;;;;;;;;;;;;;;8.12;51.00;99261.22;4481741;31;20016;-85
2022/11/30 01:31:16;;;;;;;;;;;;;;;8.05;51.22;99264.97;4470353;32;19980;-84
2022/11/30 01:33:42;;;;;;;;;;;;;;;8.12;51.28;99260.38;4482590;31;20298;-85
2022/11/30 01:36:11;;;;;;;;;;;;;;;8.11;51.48;99259.50;4473229;32;20120;-85
2022/11/30 01:38:40;;;;;;;;;;;;;;;8.13;51.02;99256.81;4482167;31;20418;-84
2022/11/30 01:41:06;;;;;;;;;;;;;;;8.23;50.92;99250.34;4483339;31;20102;-85
2022/11/30 01:43:37;;;;;;;;;;;;;;;8.18;50.92;99252.28;4470803;32;20320;-85
2022/11/30 01:46:03;;;;;;;;;;;;;;;7.56;52.02;99254.47;4482082;31;20735;-85
2022/11/30 01:48:28;;;;;;;;;;;;;;;8.08;50.50;99246.50;4475427;31;19991;-84
2022/11/30 01:50:53;;;;;;;;;;;;;;;8.17;50.37;99251.41;4473424;32;20595;-85
2022/11/30 01:53:18;;;;;;;;;;;;;;;6.90;53.09;99251.44;4476929;31;20020;-85
2022/11/30 01:55:48;;;;;;;;;;;;;;;7.56;51.25;99243.12;4481505;31;20035;-85
2022/11/30 01:58:17;;;;;;;;;;;;;;;7.80;50.86;99251.88;4469657;32;20050;-84
2022/11/30 02:00:43;;;;;;;;;;;;;;;7.63;51.56;99250.75;4482382;31;20359;-84
2022/11/30 02:03:27;;;;;;;;;;;;;;;7.93;51.06;99252.31;4474075;32;20002;-84
2022/11/30 02:05:52;;;;;;;;;;;;;;;7.91;50.73;99246.28;4484068;31;20015;-84
2022/11/30 02:08:18;;;;;;;;;;;;;;;7.71;51.46;99253.09;4481851;31;19982;-84
2022/11/30 02:10:44;;;;;;;;;;;;;;;7.59;51.45;99248.25;4478190;32;19971;-85
2022/11/30 02:13:12;;;;;;;;;;;;;;;7.85;50.79;99247.34;4468161;32;20007;-84
2022/11/30 02:15:48;;;;;;;;;;;;;;;7.76;50.88;99243.28;4483681;31;20037;-85
2022/11/30 02:18:14;;;;;;;;;;;;;;;7.91;50.58;99251.53;4482167;31;19976;-86
2022/11/30 02:20:46;;;;;;;;;;;;;;;7.61;51.51;99249.06;4473392;32;19980;-84
2022/11/30 02:23:30;;;;;;;;;;;;;;;7.26;52.40;99246.75;4470496;32;20013;-83
2022/11/30 02:25:58;;;;;;;;;;;;;;;7.75;51.37;99243.34;4481718;31;19988;-84
2022/11/30 02:28:42;;;;;;;;;;;;;;;7.94;50.79;99244.41;4475241;32;19994;-85
2022/11/30 02:31:07;;;;;;;;;;;;;;;8.07;50.63;99242.16;4481574;31;19972;-85
2022/11/30 02:33:33;;;;;;;;;;;;;;;8.02;50.90;99244.97;4474466;31;20023;-84
2022/11/30 02:35:58;;;;;;;;;;;;;;;8.13;50.65;99243.69;4469446;32;19988;-85
2022/11/30 02:38:23;;;;;;;;;;;;;;;8.02;50.68;99238.87;4469533;32;20248;-87
2022/11/30 02:40:49;;;;;;;;;;;;;;;8.15;50.23;99237.50;4457717;32;20023;-88
2022/11/30 02:43:14;;;;;;;;;;;;;;;7.76;51.17;99237.19;4481277;31;20060;-86
2022/11/30 02:45:39;;;;;;;;;;;;;;;7.74;51.16;99225.88;4483184;31;20229;-86
2022/11/30 02:48:08;;;;;;;;;;;;;;;8.04;50.66;99227.41;4481511;31;20023;-87
2022/11/30 02:50:40;;;;;;;;;;;;;;;8.20;50.29;99224.19;4483371;31;19984;-86
2022/11/30 02:53:06;;;;;;;;;;;;;;;7.69;51.82;99228.69;4472134;32;19995;-87
2022/11/30 02:55:31;;;;;;;;;;;;;;;7.76;51.44;99230.16;4472111;31;20302;-85
2022/11/30 02:57:56;;;;;;;;;;;;;;;7.83;51.58;99233.44;4483153;31;19980;-85
2022/11/30 03:00:21;;;;;;;;;;;;;;;7.09;53.25;99236.00;4481280;31;20008;-85
2022/11/30 03:02:47;;;;;;;;;;;;;;;6.96;53.43;99234.69;4483309;31;20007;-84
2022/11/30 03:05:12;;;;;;;;;;;;;;;7.66;51.60;99234.03;4481185;31;20394;-85
2022/11/30 03:07:37;;;;;;;;;;;;;;;7.34;52.10;99232.53;4483226;31;20016;-84
2022/11/30 03:10:03;;;;;;;;;;;;;;;7.61;51.65;99233.31;4481197;31;20304;-83
2022/11/30 03:12:29;;;;;;;;;;;;;;;7.90;50.91;99242.81;4456497;32;19996;-85
2022/11/30 03:14:54;;;;;;;;;;;;;;;8.05;50.67;99231.75;4482254;31;20324;-85
2022/11/30 03:17:19;;;;;;;;;;;;;;;8.08;50.36;99233.38;4482518;31;20059;-84
2022/11/30 03:19:44;;;;;;;;;;;;;;;8.22;50.13;99227.62;4482830;31;20038;-85
2022/11/30 03:22:09;;;;;;;;;;;;;;;8.13;49.96;99225.34;4481065;31;20299;-84
2022/11/30 03:24:35;;;;;;;;;;;;;;;8.25;50.15;99231.00;4483017;31;20229;-84
2022/11/30 03:27:00;;;;;;;;;;;;;;;8.35;49.27;99231.50;4480899;31;20015;-84
2022/11/30 03:29:26;;;;;;;;;;;;;;;8.14;49.46;99229.69;4482915;32;19975;-83
2022/11/30 03:31:51;;;;;;;;;;;;;;;8.23;49.12;99240.69;4481317;31;19995;-84
2022/11/30 03:34:16;;;;;;;;;;;;;;;7.89;49.50;99241.06;4473185;32;20023;-84
2022/11/30 03:36:42;;;;;;;;;;;;;;;8.19;48.91;99244.34;4481221;31;20221;-84
2022/11/30 03:39:08;;;;;;;;;;;;;;;8.38;48.66;99241.00;4482525;31;19992;-84
2022/11/30 03:41:33;;;;;;;;;;;;;;;8.44;48.26;99246.03;4474177;31;19994;-84
2022/11/30 03:43:58;;;;;;;;;;;;;;;8.55;47.67;99246.50;4481343;31;20015;-85
2022/11/30 03:46:25;;;;;;;;;;;;;;;7.74;49.19;99244.25;4483210;31;20011;-84
2022/11/30 03:48:51;;;;;;;;;;;;;;;8.00;48.21;99244.16;4480959;31;21287;-84
2022/11/30 03:51:16;;;;;;;;;;;;;;;8.28;47.65;99245.75;4483401;31;19992;-84
2022/11/30 03:53:41;;;;;;;;;;;;;;;8.53;47.45;99237.81;4480741;31;19979;-84
2022/11/30 03:56:08;;;;;;;;;;;;;;;8.55;47.46;99232.50;4471717;32;20335;-86
2022/11/30 03:58:33;;;;;;;;;;;;;;;7.98;48.73;99235.50;4482305;31;19971;-86
2022/11/30 04:01:00;;;;;;;;;;;;;;;8.26;48.18;99243.19;4482359;31;19998;-86
2022/11/30 04:03:25;;;;;;;;;;;;;;;8.53;47.82;99243.06;4472496;32;20010;-87
2022/11/30 04:05:50;;;;;;;;;;;;;;;8.58;47.57;99238.50;4480868;31;20011;-87
2022/11/30 04:08:15;;;;;;;;;;;;;;;8.62;47.64;99237.47;4482937;31;20011;-87
2022/11/30 04:10:40;;;;;;;;;;;;;;;8.42;47.72;99240.88;4480550;31;20004;-87
2022/11/30 04:13:06;;;;;;;;;;;;;;;7.99;48.72;99246.84;4483018;32;19972;-85
2022/11/30 04:15:31;;;;;;;;;;;;;;;8.36;48.35;99240.22;4470312;31;20304;-85
2022/11/30 04:17:56;;;;;;;;;;;;;;;8.55;48.19;99246.50;4482938;31;20019;-85
2022/11/30 04:20:21;;;;;;;;;;;;;;;8.48;47.91;99236.28;4481596;31;19984;-86
2022/11/30 04:22:47;;;;;;;;;;;;;;;8.32;47.89;99238.63;4482351;31;20003;-85
2022/11/30 04:25:12;;;;;;;;;;;;;;;8.05;48.00;99239.63;4468954;31;19971;-85
2022/11/30 04:27:37;;;;;;;;;;;;;;;8.48;47.57;99237.16;4480397;31;20010;-85
2022/11/30 04:30:06;;;;;;;;;;;;;;;8.61;47.39;99238.37;4482465;32;20008;-86
2022/11/30 04:32:31;;;;;;;;;;;;;;;8.58;47.37;99243.75;4480648;31;19983;-85
2022/11/30 04:34:56;;;;;;;;;;;;;;;8.29;48.91;99242.22;4470039;32;20015;-87
2022/11/30 04:37:21;;;;;;;;;;;;;;;8.42;48.00;99242.62;4480914;31;20037;-87
2022/11/30 04:39:50;;;;;;;;;;;;;;;8.53;47.79;99250.09;4482296;31;20019;-88
2022/11/30 04:42:15;;;;;;;;;;;;;;;8.58;47.22;99251.63;4482352;31;20304;-87
2022/11/30 04:44:40;;;;;;;;;;;;;;;8.56;46.56;99248.22;4481656;31;20011;-87
2022/11/30 04:47:05;;;;;;;;;;;;;;;8.68;47.04;99246.87;4482504;31;20367;-88
2022/11/30 04:49:30;;;;;;;;;;;;;;;8.65;46.44;99245.25;4480177;31;20011;-86
2022/11/30 04:51:56;;;;;;;;;;;;;;;8.58;46.19;99245.53;4482312;31;20016;-85
2022/11/30 04:54:21;;;;;;;;;;;;;;;7.68;48.36;99247.94;4482013;31;19968;-86
2022/11/30 04:56:46;;;;;;;;;;;;;;;8.41;46.95;99244.41;4475217;32;20306;-85
2022/11/30 04:59:11;;;;;;;;;;;;;;;8.60;46.69;99246.34;4482128;31;20053;-86
2022/11/30 05:01:37;;;;;;;;;;;;;;;8.41;46.92;99238.28;4486318;31;19967;-85
2022/11/30 05:04:02;;;;;;;;;;;;;;;8.40;46.18;99247.94;4483378;32;20020;-86
2022/11/30 05:06:27;;;;;;;;;;;;;;;8.18;46.68;99240.00;4473243;32;20031;-86
2022/11/30 05:08:52;;;;;;;;;;;;;;;7.66;48.12;99248.00;4484530;31;20255;-86
2022/11/30 05:11:18;;;;;;;;;;;;;;;8.05;46.91;99239.63;4481826;31;19979;-86
2022/11/30 05:13:43;;;;;;;;;;;;;;;8.20;46.84;99240.78;4484257;31;20011;-86
2022/11/30 05:16:09;;;;;;;;;;;;;;;8.42;46.45;99242.62;4482224;31;20007;-85
2022/11/30 05:18:34;;;;;;;;;;;;;;;8.27;46.34;99241.44;4484173;31;20047;-85
2022/11/30 05:21:00;;;;;;;;;;;;;;;8.38;45.91;99244.50;4470113;32;20110;-85
2022/11/30 05:23:25;;;;;;;;;;;;;;;8.19;46.22;99253.97;4484181;31;20261;-85
2022/11/30 05:25:50;;;;;;;;;;;;;;;8.34;46.18;99247.28;4483264;31;19994;-85
2022/11/30 05:28:16;;;;;;;;;;;;;;;8.35;46.41;99249.88;4471753;32;20020;-85
2022/11/30 05:30:41;;;;;;;;;;;;;;;8.32;46.44;99247.34;4484094;31;20010;-85
2022/11/30 05:33:06;;;;;;;;;;;;;;;8.39;46.14;99250.59;4479509;31;82529;-84
2022/11/30 05:35:31;;;;;;;;;;;;;;;8.31;46.37;99258.78;4484295;31;20009;-84
2022/11/30 05:37:57;;;;;;;;;;;;;;;8.20;46.05;99259.16;4481946;31;20035;-84
2022/11/30 05:40:24;;;;;;;;;;;;;;;7.55;47.21;99255.41;4483990;31;19988;-84
2022/11/30 05:42:53;;;;;;;;;;;;;;;8.24;46.21;99257.28;4481894;32;19987;-84
2022/11/30 05:45:18;;;;;;;;;;;;;;;8.30;45.64;99253.56;4483776;31;19998;-84
2022/11/30 05:47:44;;;;;;;;;;;;;;;8.31;45.88;99256.16;4483302;31;19996;-84
2022/11/30 05:50:09;;;;;;;;;;;;;;;8.37;45.44;99266.41;4482864;31;19992;-84
2022/11/30 05:52:34;;;;;;;;;;;;;;;8.20;46.18;99256.53;4483921;31;20003;-84
2022/11/30 05:55:00;;;;;;;;;;;;;;;8.45;45.49;99266.16;4481821;31;20406;-84
2022/11/30 05:57:25;;;;;;;;;;;;;;;7.97;45.84;99262.63;4484146;31;20045;-84
2022/11/30 05:59:50;;;;;;;;;;;;;;;8.22;45.58;99264.34;4481873;31;20012;-83
2022/11/30 06:02:15;;;;;;;;;;;;;;;8.24;45.18;99260.75;4483925;31;19975;-88
2022/11/30 06:04:41;;;;;;;;;;;;;;;8.12;45.43;99265.62;4481202;31;19992;-86
2022/11/30 06:07:10;;;;;;;;;;;;;;;8.28;45.19;99253.63;4484154;31;20004;-85
2022/11/30 06:09:35;;;;;;;;;;;;;;;8.42;44.77;99261.87;4482874;31;19984;-86
2022/11/30 06:12:01;;;;;;;;;;;;;;;8.39;44.90;99261.09;4482561;31;20043;-85
2022/11/30 06:14:26;;;;;;;;;;;;;;;8.23;45.00;99266.94;4487541;31;19967;-86
2022/11/30 06:16:51;;;;;;;;;;;;;;;8.25;44.79;99266.88;4473027;32;20002;-85
2022/11/30 06:19:16;;;;;;;;;;;;;;;7.54;46.20;99269.41;4484155;31;20007;-85
2022/11/30 06:21:41;;;;;;;;;;;;;;;8.05;45.19;99273.72;4481356;31;20046;-85
2022/11/30 06:24:07;;;;;;;;;;;;;;;8.20;44.78;99272.28;4483913;31;20334;-85
2022/11/30 06:26:32;;;;;;;;;;;;;;;8.42;44.83;99272.38;4481442;31;20083;-85
2022/11/30 06:28:58;;;;;;;;;;;;;;;8.37;44.12;99276.06;4484006;31;20189;-87
2022/11/30 06:31:23;;;;;;;;;;;;;;;8.52;43.84;99285.13;4483812;31;20028;-85
2022/11/30 06:33:48;;;;;;;;;;;;;;;8.57;43.91;99289.31;4482698;31;19982;-84
2022/11/30 06:36:18;;;;;;;;;;;;;;;8.42;43.99;99293.38;4483258;31;19976;-84
2022/11/30 06:38:44;;;;;;;;;;;;;;;8.58;43.60;99291.03;4467772;32;19996;-83
2022/11/30 06:41:11;;;;;;;;;;;;;;;8.34;44.08;99294.53;4483833;32;20008;-84
2022/11/30 06:43:36;;;;;;;;;;;;;;;8.52;43.95;99291.28;4481506;31;20006;-83
2022/11/30 06:46:02;;;;;;;;;;;;;;;8.31;43.81;99295.53;4483537;31;20351;-83
2022/11/30 06:48:27;;;;;;;;;;;;;;;8.49;43.35;99295.78;4467974;32;20011;-84
2022/11/30 06:50:53;;;;;;;;;;;;;;;8.60;43.21;99297.06;4483708;31;20024;-86
2022/11/30 06:53:18;;;;;;;;;;;;;;;8.68;43.27;99294.16;4482847;31;19996;-84
2022/11/30 06:55:43;;;;;;;;;;;;;;;8.69;43.00;99295.84;4483623;31;19983;-84
2022/11/30 06:58:09;;;;;;;;;;;;;;;8.52;43.71;99301.78;4472837;31;19984;-84
2022/11/30 07:00:34;;;;;;;;;;;;;;;8.52;43.54;99299.16;4482033;31;19974;-87
2022/11/30 07:02:59;;;;;;;;;;;;;;;8.68;43.38;99291.53;4483768;31;20586;-87
2022/11/30 07:05:25;;;;;;;;;;;;;;;8.81;43.07;99295.41;4481214;31;20030;-87
2022/11/30 07:07:50;;;;;;;;;;;;;;;8.93;43.11;99293.19;4483592;31;19995;-87
2022/11/30 07:10:15;;;;;;;;;;;;;;;8.96;43.37;99288.69;4481284;31;20007;-83
2022/11/30 07:12:40;;;;;;;;;;;;;;;8.96;43.54;99285.19;4483358;31;20263;-84
2022/11/30 07:15:06;;;;;;;;;;;;;;;8.59;44.22;99287.47;4482114;31;20012;-83
2022/11/30 07:17:31;;;;;;;;;;;;;;;8.76;43.32;99292.09;4480984;31;19995;-83
2022/11/30 07:19:56;;;;;;;;;;;;;;;8.91;42.70;99295.03;4483133;31;19976;-84
2022/11/30 07:22:22;;;;;;;;;;;;;;;8.87;42.53;99294.28;4481464;32;20015;-83
2022/11/30 07:27:31;;;;;;;;;;;;;;;9.00;42.47;99285.00;4480786;31;20028;-85
2022/11/30 07:29:56;;;;;;;;;;;;;;;8.60;43.94;99302.31;4483080;31;20000;-85
2022/11/30 07:32:21;;;;;;;;;;;;;;;8.38;43.67;99294.38;4481508;31;20022;-84
2022/11/30 07:34:47;;;;;;;;;;;;;;;8.59;44.07;99290.09;4469272;32;20056;-85
2022/11/30 07:37:12;;;;;;;;;;;;;;;8.80;42.96;99292.81;4482520;32;19986;-86
2022/11/30 07:39:37;;;;;;;;;;;;;;;9.04;42.33;99285.75;4481176;31;20015;-85
2022/11/30 07:42:02;;;;;;;;;;;;;;;9.09;42.41;99286.41;4482927;31;19971;-85
2022/11/30 07:44:28;;;;;;;;;;;;;;;9.10;42.63;99282.00;4481126;31;19987;-85
2022/11/30 07:46:53;;;;;;;;;;;;;;;9.24;42.53;99283.16;4474674;32;20019;-85
2022/11/30 07:49:18;;;;;;;;;;;;;;;9.33;42.51;99281.03;4480870;31;20007;-86
2022/11/30 07:51:44;;;;;;;;;;;;;;;9.40;42.00;99279.88;4483097;31;19976;-85
2022/11/30 07:54:09;;;;;;;;;;;;;;;9.12;42.15;99283.66;4469213;32;20036;-85
2022/11/30 07:56:34;;;;;;;;;;;;;;;9.34;41.77;99286.25;4482231;32;20028;-84
2022/11/30 07:59:00;;;;;;;;;;;;;;;9.32;41.54;99297.75;4482360;31;19967;-86
2022/11/30 08:01:28;;;;;;;;;;;;;;;8.89;41.72;99289.00;4462297;31;19983;-86
2022/11/30 08:03:53;;;;;;;;;;;;;;;9.25;41.52;99290.13;4482816;31;20024;-85
2022/11/30 08:06:19;;;;;;;;;;;;;;;9.18;41.58;99287.81;4480729;31;19999;-86
2022/11/30 08:08:45;;;;;;;;;;;;;;;9.19;41.63;99287.75;4472160;32;19995;-86
2022/11/30 08:11:11;;;;;;;;;;;;;;;9.34;41.49;99294.13;4480810;31;19980;-86
2022/11/30 08:13:37;;;;;;;;;;;;;;;9.35;41.63;99287.09;4482820;31;20055;-86
2022/11/30 08:16:06;;;;;;;;;;;;;;;9.37;42.44;99294.03;4481573;32;19984;-86
2022/11/30 08:18:32;;;;;;;;;;;;;;;9.29;42.18;99284.72;4481741;31;19991;-87
2022/11/30 08:21:01;;;;;;;;;;;;;;;9.57;41.89;99292.31;4482521;31;20013;-88
2022/11/30 08:23:27;;;;;;;;;;;;;;;9.54;41.97;99290.69;4480248;31;20044;-86
2022/11/30 08:25:52;;;;;;;;;;;;;;;9.69;40.96;99285.69;4484568;31;21637;-87
2022/11/30 08:28:17;;;;;;;;;;;;;;;9.83;39.60;99284.19;4479778;31;20027;-87
2022/11/30 08:30:43;;;;;;;;;;;;;;;9.51;39.31;99279.44;4486202;31;20288;-87
2022/11/30 08:33:08;;;;;;;;;;;;;;;9.84;39.44;99288.50;4480209;31;19987;-87
2022/11/30 08:35:33;;;;;;;;;;;;;;;9.60;39.99;99279.03;4486462;31;19984;-87
2022/11/30 08:37:58;;;;;;;;;;;;;;;9.95;40.13;99282.78;4468985;31;19992;-86
2022/11/30 08:40:24;;;;;;;;;;;;;;;9.88;39.88;99280.47;4469637;31;20083;-83
2022/11/30 08:42:49;;;;;;;;;;;;;;;10.12;39.88;99276.78;4484797;31;19971;-83
2022/11/30 08:45:14;;;;;;;;;;;;;;;10.18;39.49;99267.75;4480320;31;20065;-83
2022/11/30 08:47:39;;;;;;;;;;;;;;;10.34;38.92;99266.12;4482858;31;20106;-86
2022/11/30 08:50:05;;;;;;;;;;;;;;;10.07;38.84;99270.00;4479783;31;20023;-81
2022/11/30 08:52:30;;;;;;;;;;;;;;;9.87;39.71;99274.38;4482267;31;20006;-81
2022/11/30 08:54:55;;;;;;;;;;;;;;;10.16;38.73;99264.31;4479561;31;20042;-83
2022/11/30 08:57:22;;;;;;;;;;;;;;;10.29;37.89;99261.97;4471530;31;19976;-81
2022/11/30 08:59:47;;;;;;;;;;;;;;;10.23;38.63;99268.38;4480755;31;20004;-81
2022/11/30 09:02:16;;;;;;;;;;;;;;;10.30;38.72;99261.06;4454353;32;20033;-82
2022/11/30 09:04:41;;;;;;;;;;;;;;;10.41;38.32;99271.97;4482584;31;20293;-86
2022/11/30 09:07:08;;;;;;;;;;;;;;;10.39;38.44;99269.44;4479302;31;19976;-80
2022/11/30 09:09:33;;;;;;;;;;;;;;;10.54;38.29;99267.84;4482584;31;19999;-79
2022/11/30 09:11:59;;;;;;;;;;;;;;;10.70;38.11;99272.38;4469841;31;20018;-81
2022/11/30 09:14:24;;;;;;;;;;;;;;;10.72;37.07;99263.50;4481689;31;20019;-80
2022/11/30 09:16:49;;;;;;;;;;;;;;;10.84;37.89;99261.22;4480279;31;20011;-81
2022/11/30 09:19:14;;;;;;;;;;;;;;;10.27;38.64;99261.19;4481811;31;20035;-82
2022/11/30 09:21:40;;;;;;;;;;;;;;;10.15;38.17;99265.25;4480614;31;20320;-82
2022/11/30 09:24:06;;;;;;;;;;;;;;;10.66;38.10;99263.78;4466485;31;20000;-82
2022/11/30 09:26:31;;;;;;;;;;;;;;;10.35;37.83;99267.88;4485015;31;20010;-81
2022/11/30 09:28:56;;;;;;;;;;;;;;;10.47;37.98;99270.84;4479019;31;20003;-82
2022/11/30 09:31:22;;;;;;;;;;;;;;;10.47;38.58;99269.06;4484271;31;20015;-82
2022/11/30 09:33:48;;;;;;;;;;;;;;;10.47;38.50;99271.72;4466184;31;20014;-81
2022/11/30 09:36:14;;;;;;;;;;;;;;;10.31;38.78;99266.28;4472303;31;19976;-81
2022/11/30 09:38:43;;;;;;;;;;;;;;;9.61;39.69;99270.22;4478997;31;19998;-82
2022/11/30 09:41:23;;;;;;;;;;;;;;;10.15;38.57;99270.50;4472748;32;20442;-82
2022/11/30 09:44:01;;;;;;;;;;;;;;;10.31;38.66;99265.44;4483233;31;20347;-82
2022/11/30 09:46:32;;;;;;;;;;;;;;;9.65;39.56;99279.69;4468077;31;20003;-81
2022/11/30 09:49:24;;;;;;;;;;;;;;;10.35;38.73;99270.50;4476527;31;19984;-81
2022/11/30 09:51:51;;;;;;;;;;;;;;;10.58;38.03;99272.03;4430479;32;20394;-82
2022/11/30 09:54:36;;;;;;;;;;;;;;;10.86;38.41;99264.63;4420268;32;20398;-83
2022/11/30 09:57:21;;;;;;;;;;;;;;;10.80;37.99;99274.53;4427913;32;20409;-81
2022/11/30 09:59:48;;;;;;;;;;;;;;;10.53;38.21;99270.56;4374949;32;19993;-81
2022/11/30 10:02:14;;;;;;;;;;;;;;;10.04;39.21;99260.44;4391941;32;21562;-80
2022/11/30 10:04:39;;;;;;;;;;;;;;;10.07;39.34;99270.00;4404426;32;20485;-81
2022/11/30 10:07:14;;;;;;;;;;;;;;;10.20;38.94;99263.25;4401778;32;20061;-80
2022/11/30 10:09:58;;;;;;;;;;;;;;;10.44;38.83;99266.56;4389349;32;19992;-83
2022/11/30 10:12:26;;;;;;;;;;;;;;;10.76;38.87;99257.16;4404878;32;20619;-83
2022/11/30 10:15:09;;;;;;;;;;;;;;;10.59;38.34;99257.09;4391369;32;20448;-79
2022/11/30 10:17:53;;;;;;;;;;;;;;;10.87;38.25;99255.78;4398206;32;20318;-81
2022/11/30 10:20:21;;;;;;;;;;;;;;;10.86;38.44;99257.56;4391400;32;20021;-81
2022/11/30 10:22:49;;;;;;;;;;;;;;;10.75;38.72;99257.22;4396474;32;20015;-80
2022/11/30 10:25:20;;;;;;;;;;;;;;;10.55;39.32;99256.41;4393068;32;20008;-81
2022/11/30 10:27:48;;;;;;;;;;;;;;;10.72;38.71;99252.97;4404234;32;20029;-82
2022/11/30 10:30:23;;;;;;;;;;;;;;;10.89;38.09;99240.75;4424553;32;19997;-81
2022/11/30 10:32:52;;;;;;;;;;;;;;;10.54;39.35;99243.28;4428903;32;19981;-80
2022/11/30 10:35:38;;;;;;;;;;;;;;;10.25;39.79;99253.34;4423811;32;20439;-81
2022/11/30 10:38:13;;;;;;;;;;;;;;;9.92;40.78;99242.59;4481696;31;20023;-81
2022/11/30 10:40:59;;;;;;;;;;;;;;;10.50;39.59;99234.66;4471341;31;20047;-80
2022/11/30 10:43:57;;;;;;;;;;;;;;;10.00;40.33;99235.19;4480106;31;19991;-81
2022/11/30 10:46:30;;;;;;;;;;;;;;;10.10;40.49;99241.78;4439359;32;20001;-80
2022/11/30 10:48:55;;;;;;;;;;;;;;;10.28;40.16;99236.59;4424720;32;19986;-81
2022/11/30 10:51:21;;;;;;;;;;;;;;;10.20;39.89;99234.31;4436502;32;20013;-80
2022/11/30 10:53:46;;;;;;;;;;;;;;;10.14;40.69;99232.81;4442807;32;20012;-78
2022/11/30 10:56:12;;;;;;;;;;;;;;;10.18;40.32;99233.53;4431703;32;20074;-80
2022/11/30 10:58:38;;;;;;;;;;;;;;;9.85;41.28;99236.75;4434433;32;20009;-80
2022/11/30 11:01:05;;;;;;;;;;;;;;;10.12;40.63;99239.91;4430599;32;20088;-80
2022/11/30 11:03:30;;;;;;;;;;;;;;;10.01;40.79;99229.88;4437577;32;20008;-81
2022/11/30 11:06:02;;;;;;;;;;;;;;;9.74;41.38;99228.47;4438283;32;20040;-80
2022/11/30 11:08:27;;;;;;;;;;;;;;;10.26;40.29;99228.75;4441297;32;20007;-80
2022/11/30 11:10:52;;;;;;;;;;;;;;;10.31;40.25;99224.13;4437209;32;20047;-81
2022/11/30 11:13:19;;;;;;;;;;;;;;;10.06;40.61;99220.91;4443842;32;20043;-83
2022/11/30 11:15:55;;;;;;;;;;;;;;;9.24;42.55;99227.94;4427828;32;20083;-81
2022/11/30 11:18:22;;;;;;;;;;;;;;;10.39;40.53;99215.87;4425570;32;19992;-81
2022/11/30 11:20:47;;;;;;;;;;;;;;;10.30;40.36;99213.66;4424427;32;20038;-82
2022/11/30 11:23:42;;;;;;;;;;;;;;;10.13;40.74;99222.34;4467643;32;19988;-83
2022/11/30 11:26:16;;;;;;;;;;;;;;;10.28;40.55;99221.63;4472364;31;20028;-79
2022/11/30 11:28:46;;;;;;;;;;;;;;;10.27;41.12;99219.06;4482610;31;20279;-81
2022/11/30 11:31:39;;;;;;;;;;;;;;;10.59;40.41;99214.94;4480832;31;19992;-80
2022/11/30 11:34:07;;;;;;;;;;;;;;;10.72;40.01;99221.34;4481046;31;19976;-80
2022/11/30 11:36:33;;;;;;;;;;;;;;;10.84;39.93;99216.41;4468601;31;20003;-81
2022/11/30 11:38:59;;;;;;;;;;;;;;;10.73;40.14;99220.41;4474956;32;20035;-85
2022/11/30 11:41:34;;;;;;;;;;;;;;;10.59;40.96;99215.81;4470136;31;19989;-85
2022/11/30 11:44:09;;;;;;;;;;;;;;;10.80;40.67;99220.97;4468789;31;20007;-85
2022/11/30 11:46:54;;;;;;;;;;;;;;;10.53;41.21;99223.16;4483116;31;20346;-79
2022/11/30 11:49:20;;;;;;;;;;;;;;;10.78;40.94;99228.09;4480715;31;19981;-81
2022/11/30 11:51:45;;;;;;;;;;;;;;;10.98;39.90;99224.47;4471974;31;20012;-81
2022/11/30 11:54:29;;;;;;;;;;;;;;;10.22;41.30;99238.56;4467331;32;19996;-82
2022/11/30 11:56:55;;;;;;;;;;;;;;;10.58;40.48;99221.13;4482372;31;19988;-81
2022/11/30 11:59:21;;;;;;;;;;;;;;;10.51;41.06;99227.66;4470115;32;20020;-81
2022/11/30 12:02:04;;;;;;;;;;;;;;;10.76;40.35;99227.31;4472064;31;19987;-79
2022/11/30 12:04:30;;;;;;;;;;;;;;;10.71;40.79;99226.69;4468258;31;20010;-81
2022/11/30 12:06:55;;;;;;;;;;;;;;;10.71;41.12;99230.16;4484123;31;20035;-82
2022/11/30 12:09:24;;;;;;;;;;;;;;;10.96;40.54;99229.81;4482335;31;20026;-82
2022/11/30 12:11:49;;;;;;;;;;;;;;;11.10;40.36;99221.22;4481110;31;19994;-83
2022/11/30 12:14:16;;;;;;;;;;;;;;;11.29;39.94;99215.03;4482431;32;20027;-82
2022/11/30 12:17:07;;;;;;;;;;;;;;;11.36;39.65;99209.37;4480684;31;20118;-82
2022/11/30 12:19:36;;;;;;;;;;;;;;;11.04;40.30;99208.34;4479449;31;19995;-82
2022/11/30 12:22:20;;;;;;;;;;;;;;;10.76;41.29;99214.16;4467537;32;19998;-82
2022/11/30 12:24:45;;;;;;;;;;;;;;;10.78;41.28;99210.50;4468549;31;20007;-82
2022/11/30 12:27:36;;;;;;;;;;;;;;;10.26;42.49;99215.59;4482311;31;20273;-82
2022/11/30 12:30:12;;;;;;;;;;;;;;;10.70;41.92;99209.16;4390270;32;19989;-82
2022/11/30 12:32:53;;;;;;;;;;;;;;;10.92;41.39;99212.47;4395652;32;20047;-83
2022/11/30 12:35:37;;;;;;;;;;;;;;;11.14;41.01;99216.66;4397602;32;19985;-82
2022/11/30 12:38:03;;;;;;;;;;;;;;;10.51;42.24;99217.94;4408137;32;20039;-82
2022/11/30 12:40:33;;;;;;;;;;;;;;;10.78;42.03;99205.22;4412241;32;20044;-82
2022/11/30 12:43:01;;;;;;;;;;;;;;;9.75;43.56;99209.97;4401362;32;22206;-81
2022/11/30 12:45:32;;;;;;;;;;;;;;;10.29;43.31;99210.16;4411598;32;20027;-82
2022/11/30 12:48:04;;;;;;;;;;;;;;;10.66;42.45;99200.53;4409378;32;20070;-82
2022/11/30 12:50:32;;;;;;;;;;;;;;;10.53;42.45;99204.72;4404495;32;20430;-83
2022/11/30 12:53:16;;;;;;;;;;;;;;;9.95;43.81;99214.34;4408429;32;20008;-83
2022/11/30 12:55:52;;;;;;;;;;;;;;;10.69;42.81;99207.47;4406037;32;20062;-83
2022/11/30 12:58:29;;;;;;;;;;;;;;;10.62;42.81;99201.63;4414601;32;20004;-83